Time;durP1;ratioP1;P1;durP2;ratioP2;P2;SDS_P1;SDS_P2;PMS_P1;PMS_P2;Temp;Humidity;BMP_temperature;BMP_pressure;BME280_temperature;BME280_humidity;BME280_pressure;Samples;Min_cycle;Max_cycle;Signal;HPM_P1;HPM_P2
2022/02/23 00:01:51;;;;;;;0.9;0.6;;;;;;;6.82;70.10059;942.5759;;;;
2022/02/23 00:04:19;;;;;;;0.7;0.4;;;;;;;6.94;69.55469;942.5687;;;;
2022/02/23 00:06:53;;;;;;;0.7;0.6;;;;;;;6.96;69.18555;942.6191;;;;
2022/02/23 00:09:34;;;;;;;0.8;0.5;;;;;;;6.93;69.28223;942.6799;;;;
2022/02/23 00:12:03;;;;;;;0.5;0.5;;;;;;;6.79;69.11133;942.6967;;;;
2022/02/23 00:14:33;;;;;;;1;0.5;;;;;;;6.97;69.65039;942.6826;;;;
2022/02/23 00:17:04;;;;;;;1;0.7;;;;;;;7.13;70.40332;942.8113;;;;
2022/02/23 00:19:43;;;;;;;0.8;0.5;;;;;;;6.93;70.9248;942.8091;;;;
2022/02/23 00:22:20;;;;;;;0.3;0.3;;;;;;;6.88;71.72949;942.6475;;;;
2022/02/23 00:24:58;;;;;;;1;0.5;;;;;;;6.88;71.94531;942.7162;;;;
2022/02/23 00:27:36;;;;;;;0.9;0.3;;;;;;;6.98;72.56152;942.7605;;;;
2022/02/23 00:30:13;;;;;;;0.6;0.4;;;;;;;7.05;72.41504;942.7385;;;;
2022/02/23 00:32:51;;;;;;;1;0.5;;;;;;;7.15;72.39844;942.7104;;;;
2022/02/23 00:35:28;;;;;;;0.5;0.5;;;;;;;7;70.56055;942.6312;;;;
2022/02/23 00:38:06;;;;;;;1;0.6;;;;;;;6.86;72.7793;942.7497;;;;
2022/02/23 00:40:41;;;;;;;0.6;0.6;;;;;;;6.97;72.50391;942.788;;;;
2022/02/23 00:43:09;;;;;;;0.9;0.5;;;;;;;6.75;75.0459;942.9486;;;;
2022/02/23 00:45:37;;;;;;;0.6;0.5;;;;;;;6.84;72.68555;942.8292;;;;
2022/02/23 00:48:18;;;;;;;1.3;0.7;;;;;;;6.76;74.2793;942.7408;;;;
2022/02/23 00:50:44;;;;;;;0.8;0.6;;;;;;;6.75;77.03906;942.6908;;;;
2022/02/23 00:53:14;;;;;;;1.2;0.4;;;;;;;6.66;78.24512;942.7654;;;;
2022/02/23 00:55:41;;;;;;;0.5;0.4;;;;;;;6.58;79.29492;942.9107;;;;
2022/02/23 00:58:07;;;;;;;1;0.5;;;;;;;6.61;79.51563;942.8906;;;;
2022/02/23 01:00:32;;;;;;;1;0.5;;;;;;;6.6;77.87305;942.8915;;;;
2022/02/23 01:03:02;;;;;;;0.6;0.4;;;;;;;6.66;77.54395;942.9103;;;;
2022/02/23 01:05:35;;;;;;;0.5;0.4;;;;;;;6.74;76.37012;942.8843;;;;
2022/02/23 01:08:01;;;;;;;0.7;0.4;;;;;;;6.78;76.72852;942.911;;;;
2022/02/23 01:10:27;;;;;;;1.8;0.7;;;;;;;6.9;76.99707;942.8815;;;;
2022/02/23 01:12:54;;;;;;;1.5;0.5;;;;;;;6.71;77.97168;942.9097;;;;
2022/02/23 01:15:23;;;;;;;0.3;0.3;;;;;;;6.7;79.28125;942.887;;;;
2022/02/23 01:17:58;;;;;;;0.7;0.5;;;;;;;6.67;79.45605;942.9153;;;;
2022/02/23 01:20:32;;;;;;;0.9;0.4;;;;;;;6.65;80.01074;942.865;;;;
2022/02/23 01:23:07;;;;;;;1.7;0.5;;;;;;;6.43;81.13086;943.014;;;;
2022/02/23 01:25:33;;;;;;;1.6;0.5;;;;;;;6.4;81.20703;942.9514;;;;
2022/02/23 01:27:59;;;;;;;0.9;0.4;;;;;;;6.51;81.13574;942.9061;;;;
2022/02/23 01:30:23;;;;;;;1.6;0.7;;;;;;;6.57;81.31738;942.8036;;;;
2022/02/23 01:32:54;;;;;;;0.9;0.6;;;;;;;6.62;81.65332;942.9051;;;;
2022/02/23 01:35:19;;;;;;;1.3;0.7;;;;;;;6.57;81.67871;942.9681;;;;
2022/02/23 01:37:47;;;;;;;0.6;0.6;;;;;;;6.47;82.67773;942.957;;;;
2022/02/23 01:40:22;;;;;;;1.3;0.6;;;;;;;6.53;82.90527;942.8901;;;;
2022/02/23 01:42:47;;;;;;;0.7;0.5;;;;;;;6.54;83.00879;942.9649;;;;
2022/02/23 01:45:20;;;;;;;0.9;0.5;;;;;;;6.57;83.17285;942.8803;;;;
2022/02/23 01:47:48;;;;;;;0.9;0.5;;;;;;;;;;;;;
2022/02/23 01:50:13;;;;;;;0.7;0.4;;;;;;;;;;;;;
2022/02/23 01:52:40;;;;;;;0.5;0.5;;;;;;;;;;;;;
2022/02/23 01:55:05;;;;;;;0.4;0.4;;;;;;;;;;;;;
2022/02/23 01:57:32;;;;;;;0.9;0.6;;;;;;;;;;;;;
2022/02/23 01:59:57;;;;;;;1.4;0.7;;;;;;;;;;;;;
2022/02/23 02:02:26;;;;;;;0.6;0.5;;;;;;;;;;;;;
2022/02/23 02:04:50;;;;;;;0.7;0.5;;;;;;;;;;;;;
2022/02/23 02:07:16;;;;;;;1.2;0.7;;;;;;;;;;;;;
2022/02/23 02:09:41;;;;;;;2;0.6;;;;;;;;;;;;;
2022/02/23 02:12:06;;;;;;;0.8;0.7;;;;;;;;;;;;;
2022/02/23 02:14:32;;;;;;;1.1;0.8;;;;;;;;;;;;;
2022/02/23 02:17:02;;;;;;;0.4;0.3;;;;;;;;;;;;;
2022/02/23 02:19:31;;;;;;;0.5;0.5;;;;;;;;;;;;;
2022/02/23 02:21:56;;;;;;;2.2;0.5;;;;;;;;;;;;;
2022/02/23 02:24:23;;;;;;;0.6;0.6;;;;;;;;;;;;;
2022/02/23 02:26:48;;;;;;;0.4;0.4;;;;;;;;;;;;;
2022/02/23 02:29:15;;;;;;;1.1;0.7;;;;;;;;;;;;;
2022/02/23 02:31:39;;;;;;;0.6;0.4;;;;;;;;;;;;;
2022/02/23 02:34:06;;;;;;;0.3;0.3;;;;;;;;;;;;;
2022/02/23 02:36:31;;;;;;;0.9;0.5;;;;;;;;;;;;;
2022/02/23 02:38:57;;;;;;;0.5;0.5;;;;;;;;;;;;;
2022/02/23 02:41:22;;;;;;;0.4;0.4;;;;;;;;;;;;;
2022/02/23 02:43:50;;;;;;;0.6;0.5;;;;;;;;;;;;;
2022/02/23 02:46:15;;;;;;;0.4;0.4;;;;;;;;;;;;;
2022/02/23 02:48:42;;;;;;;0.3;0.3;;;;;;;;;;;;;
2022/02/23 02:51:07;;;;;;;0.4;0.4;;;;;;;;;;;;;
2022/02/23 02:53:32;;;;;;;0.4;0.4;;;;;;;;;;;;;
2022/02/23 02:55:57;;;;;;;1.5;0.6;;;;;;;;;;;;;
2022/02/23 02:58:23;;;;;;;1.3;0.7;;;;;;;;;;;;;
2022/02/23 03:00:48;;;;;;;1.1;0.6;;;;;;;;;;;;;
2022/02/23 03:03:15;;;;;;;0.6;0.6;;;;;;;;;;;;;
2022/02/23 03:05:40;;;;;;;0.8;0.7;;;;;;;;;;;;;
2022/02/23 03:08:06;;;;;;;2.8;0.7;;;;;;;;;;;;;
2022/02/23 03:10:31;;;;;;;0.9;0.6;;;;;;;;;;;;;
2022/02/23 03:12:58;;;;;;;1;0.7;;;;;;;;;;;;;
2022/02/23 03:15:23;;;;;;;4.2;3.4;;;;;;;;;;;;;
2022/02/23 03:17:50;;;;;;;1.2;0.9;;;;;;;;;;;;;
2022/02/23 03:20:16;;;;;;;57.6;51.8;;;;;;;;;;;;;
2022/02/23 03:22:41;;;;;;;29.9;27;;;;;;;;;;;;;
2022/02/23 03:25:06;;;;;;;6.5;5.9;;;;;;;;;;;;;
2022/02/23 03:27:32;;;;;;;10.7;9.8;;;;;;;;;;;;;
2022/02/23 03:29:57;;;;;;;3.4;3;;;;;;;;;;;;;
2022/02/23 03:32:23;;;;;;;1.8;1.6;;;;;;;;;;;;;
2022/02/23 03:34:48;;;;;;;1.4;0.8;;;;;;;;;;;;;
2022/02/23 03:37:14;;;;;;;0.8;0.5;;;;;;;;;;;;;
2022/02/23 03:39:39;;;;;;;1.2;0.7;;;;;;;;;;;;;
2022/02/23 03:42:06;;;;;;;0.7;0.4;;;;;;;;;;;;;
2022/02/23 03:44:31;;;;;;;0.5;0.4;;;;;;;;;;;;;
2022/02/23 03:46:56;;;;;;;0.7;0.7;;;;;;;;;;;;;
2022/02/23 03:49:21;;;;;;;0.4;0.4;;;;;;;;;;;;;
2022/02/23 03:51:47;;;;;;;0.5;0.4;;;;;;;;;;;;;
2022/02/23 03:54:12;;;;;;;0.9;0.5;;;;;;;;;;;;;
2022/02/23 03:56:42;;;;;;;0.6;0.5;;;;;;;;;;;;;
2022/02/23 03:59:06;;;;;;;0.5;0.5;;;;;;;;;;;;;
2022/02/23 04:02:30;;;;;;;0.6;0.5;;;;;;;5.88;91.11523;944.3502;;;;
2022/02/23 04:05:01;;;;;;;0.7;0.3;;;;;;;5.83;89.54492;944.2628;;;;
2022/02/23 04:07:27;;;;;;;1.1;0.4;;;;;;;5.93;89.81445;944.3466;;;;
2022/02/23 04:09:57;;;;;;;0.5;0.4;;;;;;;6.05;89.66992;944.3727;;;;
2022/02/23 04:12:23;;;;;;;0.5;0.4;;;;;;;6.05;89.39844;944.4026;;;;
2022/02/23 04:14:47;;;;;;;0.8;0.3;;;;;;;6.17;88.9043;944.3872;;;;
2022/02/23 04:17:14;;;;;;;0.4;0.3;;;;;;;6.23;88.6582;944.4776;;;;
2022/02/23 04:19:44;;;;;;;0.8;0.4;;;;;;;6.25;88.42383;944.4639;;;;
2022/02/23 04:22:09;;;;;;;0.7;0.6;;;;;;;6.18;88.95215;944.4983;;;;
2022/02/23 04:24:40;;;;;;;0.8;0.7;;;;;;;6.17;89.0498;944.5516;;;;
2022/02/23 04:27:05;;;;;;;0.8;0.5;;;;;;;6.27;88.95898;944.4947;;;;
2022/02/23 04:29:35;;;;;;;0.7;0.5;;;;;;;6.14;88.59375;944.6091;;;;
2022/02/23 04:32:00;;;;;;;1;0.6;;;;;;;5.97;90.15137;944.5774;;;;
2022/02/23 04:34:26;;;;;;;0.4;0.4;;;;;;;6;90.25879;944.5359;;;;
2022/02/23 04:36:57;;;;;;;0.9;0.4;;;;;;;6.07;89.98047;944.7717;;;;
2022/02/23 04:39:26;;;;;;;0.9;0.5;;;;;;;6.13;89.6416;944.6577;;;;
2022/02/23 04:41:51;;;;;;;2.5;0.8;;;;;;;5.95;90.33984;944.7958;;;;
2022/02/23 04:44:19;;;;;;;1.6;0.5;;;;;;;5.97;90.75977;944.8483;;;;
2022/02/23 04:46:43;;;;;;;1.1;0.6;;;;;;;6.08;90.16309;944.9003;;;;
2022/02/23 04:49:13;;;;;;;0.8;0.7;;;;;;;6.03;90.5918;944.8589;;;;
2022/02/23 04:51:38;;;;;;;0.5;0.4;;;;;;;5.97;90.52441;944.8494;;;;
2022/02/23 04:54:05;;;;;;;1.2;0.5;;;;;;;5.84;91.34277;944.7374;;;;
2022/02/23 04:56:30;;;;;;;1.1;0.8;;;;;;;5.91;91.21289;944.8416;;;;
2022/02/23 04:58:59;;;;;;;1.2;0.9;;;;;;;6.03;90.99902;944.8998;;;;
2022/02/23 05:01:29;;;;;;;3.1;2.2;;;;;;;6.13;90.29688;944.9528;;;;
2022/02/23 05:03:59;;;;;;;2.9;1.5;;;;;;;6;90.67676;944.8574;;;;
2022/02/23 05:06:24;;;;;;;0.8;0.8;;;;;;;6.03;90.49219;945.0527;;;;
2022/02/23 05:08:52;;;;;;;1.3;1;;;;;;;6.1;89.90723;945.0639;;;;
2022/02/23 05:11:18;;;;;;;1.8;1.4;;;;;;;5.96;90.63477;944.9233;;;;
2022/02/23 05:13:50;;;;;;;2.2;1.4;;;;;;;5.81;91.67578;945.1457;;;;
2022/02/23 05:16:16;;;;;;;1.1;1;;;;;;;5.89;91.89648;945.1534;;;;
2022/02/23 05:18:42;;;;;;;1;0.8;;;;;;;5.94;91.6123;945.0418;;;;
2022/02/23 05:21:10;;;;;;;1.6;1.1;;;;;;;5.79;91.97656;945.2293;;;;
2022/02/23 05:23:42;;;;;;;1.3;1;;;;;;;5.8;92.35156;945.2977;;;;
2022/02/23 05:26:14;;;;;;;2.4;1.5;;;;;;;6;91.5127;945.2764;;;;
2022/02/23 05:28:42;;;;;;;2.7;1.4;;;;;;;6.1;91.10449;945.3777;;;;
2022/02/23 05:31:08;;;;;;;6.2;4.3;;;;;;;6.07;90.88379;945.4414;;;;
2022/02/23 05:33:33;;;;;;;6.1;4.3;;;;;;;6.02;91.07813;945.261;;;;
2022/02/23 05:35:59;;;;;;;3.9;3.4;;;;;;;5.77;92.39941;945.474;;;;
2022/02/23 05:38:30;;;;;;;4.9;3.1;;;;;;;5.69;93.23145;945.5042;;;;
2022/02/23 05:41:02;;;;;;;6.2;3.6;;;;;;;5.67;93.64258;945.5872;;;;
2022/02/23 05:43:24;;;;;;;2.9;2.3;;;;;;;5.68;93.56543;945.533;;;;
2022/02/23 05:45:53;;;;;;;3.3;2;;;;;;;5.81;93.2002;945.6292;;;;
2022/02/23 05:48:24;;;;;;;3.1;2.3;;;;;;;5.89;92.59668;945.687;;;;
2022/02/23 05:50:54;;;;;;;3;2.5;;;;;;;5.72;92.71777;945.726;;;;
2022/02/23 05:53:19;;;;;;;2.7;1.5;;;;;;;5.85;92.37207;945.7612;;;;
2022/02/23 05:55:47;;;;;;;2.4;1.6;;;;;;;5.96;92.42969;945.9396;;;;
2022/02/23 05:58:12;;;;;;;3.7;2.7;;;;;;;6.1;91.83887;946.1984;;;;
2022/02/23 06:00:41;;;;;;;1;1;;;;;;;5.73;89.86133;946.1772;;;;
2022/02/23 06:03:09;;;;;;;1.2;0.8;;;;;;;5.13;90.04004;946.0884;;;;
2022/02/23 06:05:41;;;;;;;1.8;0.9;;;;;;;4.87;89.99805;946.2383;;;;
2022/02/23 06:08:10;;;;;;;1.6;1;;;;;;;4.67;90.02148;946.3417;;;;
2022/02/23 06:10:41;;;;;;;1.4;0.8;;;;;;;4.43;90.24414;946.4769;;;;
2022/02/23 06:13:12;;;;;;;1.2;0.6;;;;;;;4.19;90.80957;946.4791;;;;
2022/02/23 06:15:44;;;;;;;1.4;0.6;;;;;;;4.09;91.68848;946.5045;;;;
2022/02/23 06:18:09;;;;;;;1.1;0.6;;;;;;;4.07;92.05566;946.5959;;;;
2022/02/23 06:20:34;;;;;;;1.4;0.5;;;;;;;4.06;91.91895;946.652;;;;
2022/02/23 06:23:06;;;;;;;1.2;0.5;;;;;;;4.15;91.66797;946.8141;;;;
2022/02/23 06:25:37;;;;;;;0.6;0.5;;;;;;;4.1;90.89355;946.7339;;;;
2022/02/23 06:28:10;;;;;;;1.4;0.6;;;;;;;3.85;90.78125;946.9213;;;;
2022/02/23 06:30:42;;;;;;;0.4;0.4;;;;;;;3.81;91.51563;946.9063;;;;
2022/02/23 06:33:18;;;;;;;1.2;0.4;;;;;;;3.83;91.07031;946.9283;;;;
2022/02/23 06:35:43;;;;;;;0.8;0.5;;;;;;;3.69;91.50195;946.9874;;;;
2022/02/23 06:38:15;;;;;;;0.5;0.4;;;;;;;3.73;91.80371;947.0558;;;;
2022/02/23 06:40:43;;;;;;;0.8;0.6;;;;;;;3.68;91.81445;947.1152;;;;
2022/02/23 06:43:17;;;;;;;1.1;0.5;;;;;;;3.7;92.02246;947.2339;;;;
2022/02/23 06:45:41;;;;;;;0.4;0.4;;;;;;;3.79;92.00586;947.3066;;;;
2022/02/23 06:48:13;;;;;;;1;0.9;;;;;;;3.8;91.90723;947.2339;;;;
2022/02/23 06:50:41;;;;;;;0.6;0.4;;;;;;;3.94;91.60059;947.3074;;;;
2022/02/23 06:53:06;;;;;;;0.5;0.5;;;;;;;3.86;91.65137;947.327;;;;
2022/02/23 06:55:32;;;;;;;0.6;0.6;;;;;;;3.96;91.75098;947.4319;;;;
2022/02/23 06:58:02;;;;;;;0.7;0.7;;;;;;;3.84;92.40918;947.5204;;;;
2022/02/23 07:00:27;;;;;;;0.5;0.4;;;;;;;4.02;92.24805;947.5449;;;;
2022/02/23 07:02:54;;;;;;;1.4;0.5;;;;;;;4.18;91.45117;947.6124;;;;
2022/02/23 07:05:19;;;;;;;0.7;0.5;;;;;;;4.17;91.3125;947.6323;;;;
2022/02/23 07:07:45;;;;;;;1;0.5;;;;;;;4.35;90.49316;947.6577;;;;
2022/02/23 07:10:11;;;;;;;1.4;0.8;;;;;;;4.23;89.96191;947.7252;;;;
2022/02/23 07:12:42;;;;;;;1.4;0.9;;;;;;;4.28;90.07715;947.8493;;;;
2022/02/23 07:15:12;;;;;;;2;0.9;;;;;;;4.32;90.02832;947.9194;;;;
2022/02/23 07:17:47;;;;;;;1.8;1.2;;;;;;;4.16;90.32031;947.92;;;;
2022/02/23 07:20:24;;;;;;;2.7;1;;;;;;;4.37;89.94824;947.9835;;;;
2022/02/23 07:22:50;;;;;;;3.6;1.3;;;;;;;4.55;88.97266;948.0215;;;;
2022/02/23 07:25:17;;;;;;;1.4;0.9;;;;;;;4.67;88.28906;948.0695;;;;
2022/02/23 07:27:42;;;;;;;2;1;;;;;;;4.83;88.03906;948.075;;;;
2022/02/23 07:30:07;;;;;;;2.6;1.2;;;;;;;5;88.05273;948.1206;;;;
2022/02/23 07:32:36;;;;;;;1.7;1;;;;;;;5.18;87.66113;948.1931;;;;
2022/02/23 07:35:14;;;;;;;3.9;1.2;;;;;;;5.38;86.87988;948.1274;;;;
2022/02/23 07:37:37;;;;;;;4.7;1.5;;;;;;;5.13;86.62598;948.1358;;;;
2022/02/23 07:40:06;;;;;;;2.6;1.4;;;;;;;5.42;85.97363;948.1163;;;;
2022/02/23 07:42:35;;;;;;;3.8;2;;;;;;;5.43;85.56934;948.1505;;;;
2022/02/23 07:45:05;;;;;;;1.9;1.3;;;;;;;5.52;85.38379;948.1893;;;;
2022/02/23 07:47:36;;;;;;;4.4;1.9;;;;;;;5.52;85.82422;948.1877;;;;
2022/02/23 08:11:45;;;;;;;3.7;3;;;;;;;5.57;86.89453;948.373;;;;
2022/02/23 08:14:17;;;;;;;4.9;4.4;;;;;;;5.57;85.6416;948.4205;;;;
2022/02/23 08:21:34;;;;;;;1.2;1.1;;;;;;;5.97;83.9043;948.3117;;;;
2022/02/23 08:24:05;;;;;;;0.8;0.8;;;;;;;6.14;82.4668;948.3489;;;;
2022/02/23 08:26:43;;;;;;;1.7;0.9;;;;;;;6.54;81.66113;948.3243;;;;
2022/02/23 08:29:07;;;;;;;1.3;1.1;;;;;;;6.98;80.26172;948.3591;;;;
2022/02/23 08:31:33;;;;;;;1.1;0.8;;;;;;;6.79;76.70605;948.3384;;;;
2022/02/23 08:33:58;;;;;;;2.2;1;;;;;;;6.43;78.62207;948.3491;;;;
2022/02/23 08:36:33;;;;;;;1.5;0.7;;;;;;;6.57;78.79395;948.3122;;;;
2022/02/23 08:38:58;;;;;;;0.7;0.6;;;;;;;6.55;77.38965;948.2949;;;;
2022/02/23 08:41:32;;;;;;;1.7;1.1;;;;;;;6.96;77.37109;948.2125;;;;
2022/02/23 08:44:06;;;;;;;1.9;1;;;;;;;7.03;76.22852;948.2719;;;;
2022/02/23 08:46:28;;;;;;;3.9;1;;;;;;;7.57;74.26172;948.3324;;;;
2022/02/23 08:48:57;;;;;;;1.5;0.8;;;;;;;7.29;73.82813;948.3335;;;;
2022/02/23 08:51:28;;;;;;;1.7;1;;;;;;;7.93;72.84863;948.3832;;;;
2022/02/23 08:53:56;;;;;;;3.6;1.9;;;;;;;8.8;71.94922;948.3275;;;;
2022/02/23 08:56:21;;;;;;;3;1.4;;;;;;;8.92;68.60352;948.2795;;;;
2022/02/23 08:58:50;;;;;;;2.8;1.5;;;;;;;8.45;69.12891;948.3293;;;;
2022/02/23 09:01:15;;;;;;;3.1;1.5;;;;;;;10.33;65.85938;948.1426;;;;
2022/02/23 09:03:46;;;;;;;2.1;1.1;;;;;;;11.12;61.63574;948.1855;;;;
2022/02/23 09:06:18;;;;;;;1.6;0.7;;;;;;;9.99;63.0498;948.2322;;;;
2022/02/23 09:08:48;;;;;;;1.1;0.9;;;;;;;9.78;65.74121;948.2481;;;;
2022/02/23 09:11:13;;;;;;;1.4;1;;;;;;;9.91;64.01758;948.1425;;;;
2022/02/23 09:13:42;;;;;;;1.2;0.9;;;;;;;9.71;65.28809;948.1828;;;;
2022/02/23 09:16:08;;;;;;;1.4;1;;;;;;;12.61;57.74023;948.1175;;;;
2022/02/23 09:18:42;;;;;;;2.1;1;;;;;;;10.86;59.31445;948.0317;;;;
2022/02/23 09:21:07;;;;;;;2.6;1.1;;;;;;;8.68;68.75781;948.123;;;;
2022/02/23 09:23:38;;;;;;;1.7;1.2;;;;;;;8.51;70.26563;948.0981;;;;
2022/02/23 09:26:08;;;;;;;2.6;1.4;;;;;;;8.44;69.96973;948.0911;;;;
2022/02/23 09:28:33;;;;;;;1.9;1;;;;;;;8.45;70.89063;948.0745;;;;
2022/02/23 09:30:58;;;;;;;1.4;1;;;;;;;9.22;67.22754;948.0516;;;;
2022/02/23 09:33:30;;;;;;;1.4;1.2;;;;;;;11.65;63.48438;947.9182;;;;
2022/02/23 09:36:00;;;;;;;1.4;0.9;;;;;;;13.19;55.66992;947.9091;;;;
2022/02/23 09:38:25;;;;;;;1.9;1.1;;;;;;;10.72;60.18555;947.9366;;;;
2022/02/23 09:40:57;;;;;;;1.3;1;;;;;;;10.11;63.12305;947.9278;;;;
2022/02/23 09:43:30;;;;;;;1.3;0.9;;;;;;;11.08;61.67578;947.9305;;;;
2022/02/23 09:45:56;;;;;;;2.3;1;;;;;;;12.05;57.05859;947.856;;;;
2022/02/23 09:48:20;;;;;;;1;0.7;;;;;;;11.29;56.75293;947.9124;;;;
2022/02/23 09:50:52;;;;;;;1.1;0.7;;;;;;;12.3;57.14941;947.8633;;;;
2022/02/23 09:53:17;;;;;;;1.6;0.9;;;;;;;13.32;54.3418;947.8544;;;;
2022/02/23 09:55:43;;;;;;;1.1;0.6;;;;;;;14.5;49.66016;947.8377;;;;
2022/02/23 09:58:08;;;;;;;0.5;0.4;;;;;;;14.26;50.25488;947.9244;;;;
2022/02/23 10:00:37;;;;;;;0.8;0.7;;;;;;;15.02;48.2998;947.7156;;;;
2022/02/23 10:03:07;;;;;;;1.6;1;;;;;;;16.15;45.48828;947.7822;;;;
2022/02/23 10:05:31;;;;;;;1.7;0.6;;;;;;;15.13;46.51367;947.84;;;;
2022/02/23 10:07:56;;;;;;;1.2;0.6;;;;;;;13.26;50.81836;947.8008;;;;
2022/02/23 10:10:24;;;;;;;0.6;0.5;;;;;;;12.65;52.44434;947.7676;;;;
2022/02/23 10:12:59;;;;;;;0.7;0.6;;;;;;;12.53;54.45898;947.7829;;;;
2022/02/23 10:15:37;;;;;;;1.2;0.6;;;;;;;11.49;57.97949;947.7892;;;;
2022/02/23 10:18:04;;;;;;;0.8;0.7;;;;;;;12.2;55.66895;947.8133;;;;
2022/02/23 10:20:38;;;;;;;1.8;0.7;;;;;;;12.11;56.36816;947.7605;;;;
2022/02/23 10:23:03;;;;;;;1.4;0.8;;;;;;;12.95;53.65234;947.7361;;;;
2022/02/23 10:25:27;;;;;;;0.8;0.7;;;;;;;13.2;52.00684;947.7668;;;;
2022/02/23 10:27:58;;;;;;;1.3;0.7;;;;;;;12.7;54.01172;947.8133;;;;
2022/02/23 10:30:32;;;;;;;1.5;0.7;;;;;;;11.62;59.11914;947.8337;;;;
2022/02/23 10:32:58;;;;;;;0.7;0.6;;;;;;;12.33;57.83008;947.8008;;;;
2022/02/23 10:35:25;;;;;;;2.6;0.7;;;;;;;12.51;57.19922;947.745;;;;
2022/02/23 10:37:50;;;;;;;1.2;0.7;;;;;;;12.64;55.84082;947.7413;;;;
2022/02/23 10:40:15;;;;;;;1;0.9;;;;;;;13.42;54.06543;947.6721;;;;
2022/02/23 10:42:44;;;;;;;2.7;1.3;;;;;;;13.45;51.31152;947.6533;;;;
2022/02/23 10:45:18;;;;;;;3.9;1.4;;;;;;;13.77;54.0293;947.6049;;;;
2022/02/23 10:47:46;;;;;;;2.4;0.8;;;;;;;13.8;53.84961;947.6044;;;;
2022/02/23 10:50:11;;;;;;;2.9;1.1;;;;;;;14.1;52.41309;947.4819;;;;
2022/02/23 10:52:39;;;;;;;1;0.8;;;;;;;13.05;52.9873;947.606;;;;
2022/02/23 10:55:04;;;;;;;1.3;0.8;;;;;;;14.68;48.5752;947.5736;;;;
2022/02/23 10:57:32;;;;;;;0.9;0.6;;;;;;;15.49;47.6377;947.6118;;;;
2022/02/23 10:59:58;;;;;;;0.7;0.6;;;;;;;16.76;43.91797;947.5449;;;;
2022/02/23 11:02:24;;;;;;;0.9;0.6;;;;;;;17.44;42.89551;947.5528;;;;
2022/02/23 11:04:49;;;;;;;2.4;0.6;;;;;;;15.93;46.4707;947.5536;;;;
2022/02/23 11:07:14;;;;;;;3.2;0.8;;;;;;;15.89;47.93457;947.5712;;;;
2022/02/23 11:09:42;;;;;;;1.4;0.7;;;;;;;16.02;45.97168;947.5467;;;;
2022/02/23 11:12:07;;;;;;;0.8;0.6;;;;;;;16.36;44.46875;947.5467;;;;
2022/02/23 11:14:39;;;;;;;1;0.5;;;;;;;16.08;48.11719;947.4934;;;;
2022/02/23 11:17:19;;;;;;;0.5;0.3;;;;;;;15.79;47.84375;947.4405;;;;
2022/02/23 11:19:45;;;;;;;0.7;0.4;;;;;;;14.78;49.47461;947.4518;;;;
2022/02/23 11:22:09;;;;;;;0.8;0.6;;;;;;;14.77;53.59961;947.4645;;;;
2022/02/23 11:24:34;;;;;;;1.3;0.7;;;;;;;15.02;50.21582;947.4261;;;;
2022/02/23 11:26:59;;;;;;;1.4;0.5;;;;;;;15.45;49.86133;947.4213;;;;
2022/02/23 11:29:30;;;;;;;1.4;0.7;;;;;;;15.39;49.3125;947.4792;;;;
2022/02/23 11:31:59;;;;;;;2.1;0.8;;;;;;;14.43;52.89063;947.4113;;;;
2022/02/23 11:34:26;;;;;;;2.6;1.1;;;;;;;14.28;55.26758;947.3967;;;;
2022/02/23 11:36:55;;;;;;;1.8;0.8;;;;;;;15.55;51.87109;947.2902;;;;
2022/02/23 11:39:21;;;;;;;2;1;;;;;;;16.29;49.27441;947.295;;;;
2022/02/23 11:41:48;;;;;;;2.3;0.9;;;;;;;15.24;52.36621;947.3484;;;;
2022/02/23 11:44:12;;;;;;;0.8;0.6;;;;;;;15.02;51.71582;947.3362;;;;
2022/02/23 11:46:36;;;;;;;1.7;0.8;;;;;;;14.94;50.94531;947.26;;;;
2022/02/23 11:49:02;;;;;;;1.4;0.8;;;;;;;14.63;51.04785;947.2148;;;;
2022/02/23 11:51:28;;;;;;;3.2;1.3;;;;;;;14.85;51.33789;947.204;;;;
2022/02/23 11:53:52;;;;;;;2.1;0.7;;;;;;;15.05;50.47363;947.1527;;;;
2022/02/23 11:56:20;;;;;;;1.4;0.7;;;;;;;14.75;51.6377;947.1685;;;;
2022/02/23 11:58:43;;;;;;;1.1;0.6;;;;;;;15.02;51.20801;947.0772;;;;
2022/02/23 12:01:16;;;;;;;0.6;0.5;;;;;;;15.47;50.2334;947.1317;;;;
2022/02/23 12:03:42;;;;;;;2.3;0.8;;;;;;;16.72;46.80957;947.051;;;;
2022/02/23 12:06:09;;;;;;;1;0.5;;;;;;;18.66;41.79395;946.9955;;;;
2022/02/23 12:08:32;;;;;;;0.6;0.4;;;;;;;20;39.0752;946.9141;;;;
2022/02/23 12:11:48;;;;;;;1.6;0.6;;;;;;;20.14;38.30469;946.7969;;;;
2022/02/23 12:14:19;;;;;;;1.6;0.6;;;;;;;21.04;37.24805;946.7816;;;;
2022/02/23 12:16:49;;;;;;;1.7;0.6;;;;;;;20.38;38.80371;946.8295;;;;
2022/02/23 12:19:17;;;;;;;1.2;0.7;;;;;;;20.79;37.4375;946.6143;;;;
2022/02/23 12:21:47;;;;;;;1.2;0.7;;;;;;;19.26;39.87012;946.685;;;;
2022/02/23 12:24:17;;;;;;;1.9;0.8;;;;;;;19.65;39.46289;946.6661;;;;
2022/02/23 12:26:47;;;;;;;1.5;0.5;;;;;;;19.74;39.54102;946.6197;;;;
2022/02/23 12:29:19;;;;;;;1.1;0.4;;;;;;;19.72;39.94727;946.6442;;;;
2022/02/23 12:31:46;;;;;;;1.6;0.8;;;;;;;20.97;36.92676;946.5954;;;;
2022/02/23 12:34:09;;;;;;;0.8;0.5;;;;;;;22.52;33.8291;946.5286;;;;
2022/02/23 12:36:39;;;;;;;0.6;0.5;;;;;;;23.63;31.96094;946.5552;;;;
2022/02/23 12:39:04;;;;;;;0.8;0.5;;;;;;;24.66;30.5498;946.5048;;;;
2022/02/23 12:41:30;;;;;;;0.9;0.6;;;;;;;24.82;29.79297;946.4877;;;;
2022/02/23 12:43:56;;;;;;;1.6;0.4;;;;;;;25.66;28.70313;946.4704;;;;
2022/02/23 12:46:23;;;;;;;0.9;0.6;;;;;;;25.76;28.22461;946.4099;;;;
2022/02/23 12:48:50;;;;;;;0.5;0.4;;;;;;;26.95;26.46289;946.4285;;;;
2022/02/23 12:51:15;;;;;;;0.7;0.5;;;;;;;26.99;26.7373;946.3901;;;;
2022/02/23 12:53:44;;;;;;;1.6;0.5;;;;;;;27.16;26.35742;946.3835;;;;
2022/02/23 12:56:09;;;;;;;1.7;0.5;;;;;;;23.06;31.86133;946.3619;;;;
2022/02/23 12:58:40;;;;;;;0.9;0.5;;;;;;;24.22;30.33008;946.3125;;;;
2022/02/23 13:01:05;;;;;;;0.4;0.4;;;;;;;25.46;28.72559;946.266;;;;
2022/02/23 13:03:36;;;;;;;1.3;0.5;;;;;;;24.79;28.84863;946.2033;;;;
2022/02/23 13:06:08;;;;;;;1.4;0.4;;;;;;;25.98;27.26953;946.165;;;;
2022/02/23 13:08:37;;;;;;;0.7;0.4;;;;;;;26.4;26.89258;946.0446;;;;
2022/02/23 13:11:09;;;;;;;1.2;0.5;;;;;;;26.56;26.47559;946.0458;;;;
2022/02/23 13:13:34;;;;;;;1;0.7;;;;;;;26.14;27.31445;945.9988;;;;
2022/02/23 13:16:12;;;;;;;0.7;0.5;;;;;;;27.32;26.10547;945.9149;;;;
2022/02/23 13:18:45;;;;;;;1.8;0.5;;;;;;;26.35;27.20898;945.875;;;;
2022/02/23 13:21:10;;;;;;;0.6;0.5;;;;;;;24.49;29.7002;945.8897;;;;
2022/02/23 13:23:38;;;;;;;0.6;0.3;;;;;;;26;27.43555;945.8544;;;;
2022/02/23 13:26:03;;;;;;;0.7;0.6;;;;;;;27.29;25.46289;945.8313;;;;
2022/02/23 13:28:29;;;;;;;0.6;0.4;;;;;;;27.56;25.05078;945.8541;;;;
2022/02/23 13:30:54;;;;;;;1.7;0.5;;;;;;;28.39;24.32422;945.7388;;;;
2022/02/23 13:33:22;;;;;;;1.2;0.5;;;;;;;29.18;22.60449;945.6909;;;;
2022/02/23 13:35:45;;;;;;;0.7;0.4;;;;;;;29.74;22.37012;945.6656;;;;
2022/02/23 13:38:12;;;;;;;0.5;0.4;;;;;;;29.88;22.58008;945.6169;;;;
2022/02/23 13:40:47;;;;;;;1.1;0.4;;;;;;;29.03;23.39453;945.6166;;;;
2022/02/23 13:43:17;;;;;;;0.7;0.3;;;;;;;30.32;21.7666;945.5299;;;;
2022/02/23 13:45:46;;;;;;;1.5;0.3;;;;;;;30.42;21.30469;945.511;;;;
2022/02/23 13:48:16;;;;;;;2;0.5;;;;;;;30.56;21.13281;945.4572;;;;
2022/02/23 13:50:48;;;;;;;1.3;0.6;;;;;;;29.88;22.17383;945.4244;;;;
2022/02/23 13:53:21;;;;;;;0.6;0.4;;;;;;;30.29;21.29883;945.384;;;;
2022/02/23 13:55:52;;;;;;;0.9;0.4;;;;;;;29.69;21.99805;945.3775;;;;
2022/02/23 13:58:19;;;;;;;0.8;0.4;;;;;;;30.25;21.26172;945.3867;;;;
2022/02/23 14:00:45;;;;;;;0.5;0.2;;;;;;;29.8;21.50293;945.2982;;;;
2022/02/23 14:03:17;;;;;;;1.4;0.5;;;;;;;29.85;21.74316;945.3002;;;;
2022/02/23 14:05:42;;;;;;;0.9;0.4;;;;;;;29.21;22.2373;945.2578;;;;
2022/02/23 14:08:07;;;;;;;0.3;0.3;;;;;;;28.79;22.71582;945.2821;;;;
2022/02/23 14:10:32;;;;;;;0.5;0.4;;;;;;;28.82;23.09863;945.2009;;;;
2022/02/23 14:13:05;;;;;;;0.3;0.2;;;;;;;27.08;24.8584;945.2153;;;;
2022/02/23 14:15:42;;;;;;;0.4;0.3;;;;;;;27.09;24.7168;945.1766;;;;
2022/02/23 14:18:12;;;;;;;0.6;0.4;;;;;;;28;23.5791;945.1216;;;;
2022/02/23 14:20:39;;;;;;;0.6;0.4;;;;;;;26.64;25.48535;945.1581;;;;
2022/02/23 14:23:13;;;;;;;0.5;0.3;;;;;;;27.9;23.58594;945.1697;;;;
2022/02/23 14:25:40;;;;;;;0.3;0.3;;;;;;;27.85;23.30957;945.1131;;;;
2022/02/23 14:28:07;;;;;;;0.6;0.3;;;;;;;27.43;24;945.0669;;;;
2022/02/23 14:30:42;;;;;;;1.7;0.3;;;;;;;27.88;23.46582;945.0256;;;;
2022/02/23 14:33:07;;;;;;;0.9;0.3;;;;;;;28.84;22.1709;944.9548;;;;
2022/02/23 14:35:32;;;;;;;0.4;0.3;;;;;;;28.24;22.98535;944.9429;;;;
2022/02/23 14:38:00;;;;;;;0.7;0.3;;;;;;;26.45;24.9541;944.9883;;;;
2022/02/23 14:40:29;;;;;;;0.7;0.4;;;;;;;25.54;26.62793;944.9442;;;;
2022/02/23 14:42:58;;;;;;;1.3;0.4;;;;;;;24.94;27.34766;944.9233;;;;
2022/02/23 14:45:23;;;;;;;0.8;0.5;;;;;;;25.51;26.21289;944.9394;;;;
2022/02/23 14:47:51;;;;;;;1;0.5;;;;;;;26.12;25.97656;944.8542;;;;
2022/02/23 14:50:17;;;;;;;1;0.4;;;;;;;26.7;25.11035;944.8972;;;;
2022/02/23 14:52:46;;;;;;;2.3;0.5;;;;;;;26.56;25.00684;944.895;;;;
2022/02/23 14:55:13;;;;;;;1.7;0.5;;;;;;;26.83;25.11719;944.8666;;;;
2022/02/23 14:57:39;;;;;;;0.4;0.4;;;;;;;26.69;24.6709;944.8324;;;;
2022/02/23 15:00:04;;;;;;;1.5;0.3;;;;;;;25.79;25.65039;944.7859;;;;
2022/02/23 15:02:30;;;;;;;0.7;0.4;;;;;;;25.85;25.61816;944.738;;;;
2022/02/23 15:04:57;;;;;;;0.4;0.4;;;;;;;26.12;25.53906;944.7578;;;;
2022/02/23 15:07:22;;;;;;;1;0.4;;;;;;;27.2;24.22461;944.7849;;;;
2022/02/23 15:09:49;;;;;;;0.5;0.4;;;;;;;27.47;24.01367;944.8051;;;;
2022/02/23 15:12:18;;;;;;;1.2;0.9;;;;;;;26.85;24.66797;944.7213;;;;
2022/02/23 15:14:41;;;;;;;0.9;0.8;;;;;;;25.6;26.12305;944.7103;;;;
2022/02/23 15:17:14;;;;;;;4.8;2.9;;;;;;;25.7;26.22363;944.6953;;;;
2022/02/23 15:19:42;;;;;;;1.6;1.2;;;;;;;25.15;26.6875;944.675;;;;
2022/02/23 15:22:07;;;;;;;6.7;2.3;;;;;;;23.53;28.86035;944.7344;;;;
2022/02/23 15:24:36;;;;;;;6.2;3.7;;;;;;;23.97;28.47656;944.6947;;;;
2022/02/23 15:27:01;;;;;;;6.3;2.6;;;;;;;24.32;27.81543;944.6557;;;;
2022/02/23 15:29:30;;;;;;;3.3;1.5;;;;;;;24.58;27.60742;944.6218;;;;
2022/02/23 15:31:57;;;;;;;1.5;0.7;;;;;;;24.05;28.55176;944.6454;;;;
2022/02/23 15:34:28;;;;;;;2.1;1.1;;;;;;;23.35;28.7666;944.6461;;;;
2022/02/23 15:36:56;;;;;;;3;1.9;;;;;;;22.42;29.77441;944.6052;;;;
2022/02/23 15:39:21;;;;;;;3.8;1.5;;;;;;;22.17;30.94141;944.6349;;;;
2022/02/23 15:41:49;;;;;;;1.4;0.9;;;;;;;21.56;32.3623;944.6362;;;;
2022/02/23 15:44:15;;;;;;;3.1;1.1;;;;;;;21.49;32.87305;944.5745;;;;
2022/02/23 15:46:42;;;;;;;3.4;0.8;;;;;;;21.34;32.28809;944.6166;;;;